Rankings de siempre
Mejores tiempos personales válidos de equipo a través de todos los eventos y temporadas. Cada equipo aparece una vez por división.
Busca por nombre y abre la página donde está clasificado este récord de división.
137,989 equipos clasificados
| Pos. | Pos. AG | Equipo | Nacionalidad | Categoría de edad | TiempoMejor tiempo | Diferencia |
|---|---|---|---|---|---|---|
| 132426 | -- | Josefin Ansgarius & Saga PerssonSWE · W WU29 | SWE | W WU29 | 1:58:02 | +64:41 |
| 132427 | #14482 | Shiela Burnikell & Caitlin ScheuringUSA · W 35-39 · AG #14482 | USA | W 35-39 | 1:58:02 | +64:41 |
| 132428 | #19685 | pei shan low & kirsten howeSIN · W 25-29 · AG #19685 | SIN | W 25-29 | 1:58:02 | +64:41 |
| 132429 | #18782 | Angel Maake & Miranda KatizaRSA · W 40-44 · AG #18782 | RSA | W 40-44 | 1:58:03 | +64:42 |
| 132430 | #18783 | Meg Swinburn & Michelle SwinburnGBR · W 40-44 · AG #18783 | GBR | W 40-44 | 1:58:03 | +64:42 |
| 132431 | #41911 | Samantha Macgregor & Krystal MacgregorAUS · W 30-34 · AG #41911 | AUS | W 30-34 | 1:58:03 | +64:42 |
| 132432 | #3065 | Jennifer Crain & Stephanie MeadowsUSA · W 50-54 · AG #3065 | USA | W 50-54 | 1:58:03 | +64:42 |
| 132433 | #41912 | Saonarin Dangkulwanich & Tipanan ApihunsakornTHA · W 30-34 · AG #41912 | THA | W 30-34 | 1:58:03 | +64:42 |
| 132434 | #41913 | Ain Ibrahim & Karen KerSIN · W 30-34 · AG #41913 | SIN | W 30-34 | 1:58:03 | +64:42 |
| 132435 | #18784 | Laura Riley & Debbie JeffersonGBR · W 40-44 · AG #18784 | GBR | W 40-44 | 1:58:04 | +64:43 |
| 132436 | #18785 | Doris Gerhardt & Yvonne Tenner & Yvonne TennerGER · W 40-44 · AG #18785 | GER | W 40-44 | 1:58:04 | +64:43 |
| 132437 | #18786 | Ruth Klahold & Sandra SpliethoffGER · W 40-44 · AG #18786 | GER | W 40-44 | 1:58:04 | +64:43 |
| 132438 | #18787 | Le Yang & Cymone DingCHN · W 40-44 · AG #18787 | CHN | W 40-44 | 1:58:04 | +64:43 |
| 132439 | #19686 | Michelle Shah & Anushka BansalIND · W 25-29 · AG #19686 | IND | W 25-29 | 1:58:04 | +64:43 |
| 132440 | #18788 | Erin Kasch & Jill RiechertUSA · W 40-44 · AG #18788 | USA | W 40-44 | 1:58:05 | +64:44 |
| 132441 | #19687 | Abigail Bright & Khiah JoyceGBR · W 25-29 · AG #19687 | GBR | W 25-29 | 1:58:05 | +64:44 |
| 132442 | #41914 | Aminata Sacko & Rachel AttissouFRA · W 30-34 · AG #41914 | FRA | W 30-34 | 1:58:05 | +64:44 |
| 132443 | #18789 | Neda Valadkhani & Olga BoldtGER · W 40-44 · AG #18789 | GER | W 40-44 | 1:58:05 | +64:44 |
| 132444 | #41915 | Andrea Garey & Gabriella HerreraUSA · W 30-34 · AG #41915 | USA | W 30-34 | 1:58:05 | +64:44 |
| 132445 | #14484 | Laeticia Laplace & Evelyne AppeltansBEL · W 35-39 · AG #14484 | BEL | W 35-39 | 1:58:05 | +64:44 |
| 132446 | #41916 | Michelle Brister & Becky BarkerGBR · W 30-34 · AG #41916 | GBR | W 30-34 | 1:58:05 | +64:44 |
| 132447 | -- | Kaeli Conradie & Natalie PfeifferRSA · W WU29 | RSA | W WU29 | 1:58:05 | +64:44 |
| 132448 | #41917 | Tara Taylor & Shannon FenzelUSA · W 30-34 · AG #41917 | USA | W 30-34 | 1:58:05 | +64:44 |
| 132449 | #14485 | 怡潔 邱 & 鈺婷 邱TPE · W 35-39 · AG #14485 | TPE | W 35-39 | 1:58:05 | +64:44 |
| 132450 | #18790 | Laura Montgomerie & Gemma DaviesGBR · W 40-44 · AG #18790 | GBR | W 40-44 | 1:58:05 | +64:44 |
Página 5,298 de 5,520